createdAt,value
2023-04-21T00:01:32.110Z,100.00
2023-04-21T00:04:13.854Z,100.00
2023-04-21T00:06:47.153Z,100.00
2023-04-21T00:09:30.509Z,100.00
2023-04-21T00:12:10.769Z,100.00
2023-04-21T00:14:50.828Z,100.00
2023-04-21T00:17:26.491Z,100.00
2023-04-21T00:20:05.112Z,100.00
2023-04-21T00:22:42.772Z,100.00
2023-04-21T00:25:15.024Z,100.00
2023-04-21T00:27:52.110Z,100.00
2023-04-21T00:30:29.732Z,100.00
2023-04-21T00:33:06.599Z,100.00
2023-04-21T00:35:47.776Z,100.00
2023-04-21T00:38:28.026Z,100.00
2023-04-21T00:41:11.955Z,100.00
2023-04-21T00:44:08.210Z,100.00
2023-04-21T00:46:49.068Z,100.00
2023-04-21T00:49:21.078Z,100.00
2023-04-21T00:52:03.703Z,100.00
2023-04-21T00:54:42.550Z,100.00
2023-04-21T00:57:20.642Z,100.00
2023-04-21T00:59:55.950Z,100.00
2023-04-21T01:02:33.659Z,100.00
2023-04-21T01:05:12.558Z,100.00
2023-04-21T01:07:42.910Z,100.00
2023-04-21T01:10:17.018Z,100.00
2023-04-21T01:12:58.592Z,100.00
2023-04-21T01:15:31.484Z,100.00
2023-04-21T01:18:11.939Z,100.00
2023-04-21T01:20:50.082Z,100.00
2023-04-21T01:23:31.145Z,100.00
2023-04-21T01:26:08.875Z,100.00
2023-04-21T01:28:54.645Z,100.00
2023-04-21T01:31:30.821Z,100.00
2023-04-21T01:34:06.160Z,100.00
2023-04-21T01:36:46.586Z,100.00
2023-04-21T01:39:21.690Z,100.00
2023-04-21T01:41:59.858Z,100.00
2023-04-21T01:44:35.824Z,100.00
2023-04-21T01:47:11.703Z,100.00
2023-04-21T01:49:47.996Z,100.00
2023-04-21T01:52:21.148Z,100.00
2023-04-21T01:54:51.156Z,100.00
2023-04-21T01:57:23.522Z,100.00
2023-04-21T02:00:02.965Z,100.00
2023-04-21T02:02:38.826Z,100.00
2023-04-21T02:05:19.796Z,100.00
2023-04-21T02:07:58.046Z,100.00
2023-04-21T02:10:38.968Z,100.00
2023-04-21T02:13:13.952Z,100.00
2023-04-21T02:15:53.014Z,100.00
2023-04-21T02:18:35.289Z,100.00
2023-04-21T02:21:19.837Z,100.00
2023-04-21T02:23:54.729Z,100.00
2023-04-21T02:26:24.901Z,100.00
2023-04-21T02:28:59.473Z,100.00
2023-04-21T02:31:57.375Z,100.00
2023-04-21T02:34:44.428Z,100.00
2023-04-21T02:37:19.742Z,100.00
2023-04-21T02:40:00.808Z,100.00
2023-04-21T02:42:41.326Z,100.00
2023-04-21T02:45:21.129Z,100.00
2023-04-21T02:48:01.720Z,100.00
2023-04-21T02:50:40.144Z,100.00
2023-04-21T02:53:26.943Z,100.00
2023-04-21T02:56:04.735Z,100.00
2023-04-21T02:58:52.045Z,100.00
2023-04-21T03:01:30.298Z,100.00
2023-04-21T03:04:13.054Z,100.00
2023-04-21T03:06:56.685Z,100.00
2023-04-21T03:09:29.286Z,100.00
2023-04-21T03:12:05.513Z,100.00
2023-04-21T03:14:42.304Z,100.00
2023-04-21T03:17:19.558Z,100.00
2023-04-21T03:20:04.608Z,100.00
2023-04-21T03:22:39.211Z,100.00
2023-04-21T03:25:21.954Z,100.00
2023-04-21T03:28:02.543Z,100.00
2023-04-21T03:30:46.628Z,100.00
2023-04-21T03:33:27.864Z,100.00
2023-04-21T03:36:08.379Z,100.00
2023-04-21T03:38:54.016Z,100.00
2023-04-21T03:41:33.684Z,100.00
2023-04-21T03:44:12.958Z,100.00
2023-04-21T03:46:57.968Z,100.00
2023-04-21T03:49:36.742Z,100.00
2023-04-21T03:52:18.177Z,100.00
2023-04-21T03:55:03.156Z,100.00
2023-04-21T03:57:38.471Z,100.00
2023-04-21T04:00:23.300Z,100.00
2023-04-21T04:03:10.696Z,100.00
2023-04-21T04:05:48.784Z,100.00
2023-04-21T04:08:35.962Z,100.00
2023-04-21T04:11:08.419Z,100.00
2023-04-21T04:13:48.331Z,100.00
2023-04-21T04:16:29.248Z,100.00
2023-04-21T04:19:12.827Z,100.00
2023-04-21T04:21:55.127Z,100.00
2023-04-21T04:24:38.450Z,100.00
2023-04-21T04:27:20.568Z,100.00
2023-04-21T04:30:01.753Z,100.00
2023-04-21T04:32:47.417Z,100.00
2023-04-21T04:35:29.523Z,100.00
2023-04-21T04:38:14.919Z,100.00
2023-04-21T04:41:04.176Z,100.00
2023-04-21T04:43:44.982Z,100.00
2023-04-21T04:46:25.805Z,100.00
2023-04-21T04:49:04.001Z,100.00
2023-04-21T04:51:44.640Z,100.00
2023-04-21T04:54:24.823Z,100.00
2023-04-21T04:57:11.138Z,100.00
2023-04-21T04:59:48.869Z,100.00
2023-04-21T05:02:27.414Z,100.00
2023-04-21T05:05:05.087Z,100.00
2023-04-21T05:07:45.951Z,100.00
2023-04-21T05:10:32.830Z,100.00
2023-04-21T05:13:10.981Z,100.00
2023-04-21T05:15:46.836Z,100.00
2023-04-21T05:18:26.539Z,100.00
2023-04-21T05:21:07.562Z,100.00
2023-04-21T05:23:45.397Z,100.00
2023-04-21T05:26:21.492Z,100.00
2023-04-21T05:29:00.512Z,100.00
2023-04-21T05:31:35.011Z,100.00
2023-04-21T05:34:10.509Z,100.00
2023-04-21T05:36:49.107Z,100.00
2023-04-21T05:39:30.001Z,100.00
2023-04-21T05:42:08.004Z,100.00
2023-04-21T05:44:46.527Z,100.00
2023-04-21T05:47:27.339Z,96.99
2023-04-21T05:50:05.836Z,94.73
2023-04-21T05:52:44.170Z,90.71
2023-04-21T05:55:17.747Z,89.49
2023-04-21T05:57:56.075Z,90.24
2023-04-21T06:00:42.472Z,84.78
2023-04-21T06:03:20.359Z,81.64
2023-04-21T06:05:57.557Z,79.37
2023-04-21T06:08:36.283Z,79.20
2023-04-21T06:11:16.892Z,79.31
2023-04-21T06:13:56.588Z,72.25
2023-04-21T06:16:34.871Z,68.96
2023-04-21T06:19:18.082Z,64.19
2023-04-21T06:22:01.949Z,64.24
2023-04-21T06:24:40.866Z,63.31
2023-04-21T06:27:25.230Z,61.11
2023-04-21T06:30:00.618Z,64.02
2023-04-21T06:32:36.266Z,63.97
2023-04-21T06:35:19.009Z,59.71
2023-04-21T06:37:51.666Z,58.74
2023-04-21T06:40:29.643Z,57.25
2023-04-21T06:43:08.238Z,54.53
2023-04-21T06:45:41.393Z,54.54
2023-04-21T06:48:24.574Z,55.00
2023-04-21T06:51:02.720Z,52.94
2023-04-21T06:53:39.626Z,48.94
2023-04-21T06:56:19.827Z,50.74
2023-04-21T06:59:03.850Z,48.57
2023-04-21T07:01:39.662Z,46.92
2023-04-21T07:04:24.212Z,46.92
2023-04-21T07:07:03.289Z,47.34
2023-04-21T07:09:38.729Z,46.83
2023-04-21T07:12:19.353Z,47.81
2023-04-21T07:14:55.060Z,47.77
2023-04-21T07:17:33.984Z,48.27
2023-04-21T07:20:09.936Z,46.39
2023-04-21T07:22:43.619Z,46.02
2023-04-21T07:25:19.518Z,45.61
2023-04-21T07:27:58.150Z,45.51
2023-04-21T07:30:34.061Z,47.31
2023-04-21T07:33:14.809Z,44.29
2023-04-21T07:35:53.036Z,44.79
2023-04-21T07:38:34.868Z,44.44
2023-04-21T07:41:12.851Z,43.64
2023-04-21T07:43:44.576Z,43.23
2023-04-21T07:46:26.018Z,43.29
2023-04-21T07:49:04.465Z,41.38
2023-04-21T07:51:42.704Z,41.74
2023-04-21T07:54:23.501Z,42.13
2023-04-21T07:57:02.173Z,41.36
2023-04-21T07:59:39.971Z,43.08
2023-04-21T08:02:15.606Z,42.71
2023-04-21T08:04:48.605Z,41.00
2023-04-21T08:07:30.186Z,40.54
2023-04-21T08:10:07.482Z,41.88
2023-04-21T08:12:48.050Z,40.14
2023-04-21T08:15:31.776Z,42.04
2023-04-21T08:18:12.517Z,39.40
2023-04-21T08:20:54.806Z,41.11
2023-04-21T08:23:35.497Z,40.29
2023-04-21T08:26:13.789Z,42.24
2023-04-21T08:28:48.822Z,40.80
2023-04-21T08:31:32.169Z,41.65
2023-04-21T08:34:10.223Z,41.01
2023-04-21T08:36:52.758Z,42.42
2023-04-21T08:39:41.489Z,39.33
2023-04-21T08:42:13.148Z,39.55
2023-04-21T08:44:51.497Z,39.42
2023-04-21T08:47:27.377Z,39.98
2023-04-21T08:50:00.234Z,40.40
2023-04-21T08:52:41.679Z,39.77
2023-04-21T08:55:15.709Z,41.16
2023-04-21T08:57:48.723Z,41.05
2023-04-21T09:00:26.890Z,42.12
2023-04-21T09:03:10.746Z,39.83
2023-04-21T09:06:07.973Z,41.57
2023-04-21T09:08:45.299Z,42.00
2023-04-21T09:11:32.915Z,39.77
2023-04-21T09:14:06.561Z,39.61
2023-04-21T09:17:02.881Z,44.45
2023-04-21T09:19:42.502Z,40.80
2023-04-21T09:22:20.734Z,41.57
2023-04-21T09:25:03.681Z,43.71
2023-04-21T09:27:47.866Z,40.99
2023-04-21T09:30:29.188Z,38.70
2023-04-21T09:33:20.255Z,41.28
2023-04-21T09:36:21.558Z,42.14
2023-04-21T09:39:38.218Z,40.21
2023-04-21T09:42:15.775Z,41.25
2023-04-21T09:44:58.147Z,42.95
2023-04-21T09:47:52.365Z,41.34
2023-04-21T09:50:54.228Z,40.30
2023-04-21T09:53:22.508Z,39.44
2023-04-21T09:56:02.692Z,42.08
2023-04-21T09:59:04.684Z,37.94
2023-04-21T10:01:39.268Z,38.31
2023-04-21T10:04:15.752Z,40.77
2023-04-21T10:06:49.878Z,38.58
2023-04-21T10:09:35.239Z,36.85
2023-04-21T10:12:14.507Z,37.07
2023-04-21T10:14:52.499Z,39.45
2023-04-21T10:17:32.239Z,41.55
2023-04-21T10:20:13.437Z,37.42
2023-04-21T10:22:46.445Z,41.32
2023-04-21T10:25:24.862Z,38.57
2023-04-21T10:28:05.667Z,38.24
2023-04-21T10:30:46.645Z,43.90
2023-04-21T10:33:23.877Z,41.81
2023-04-21T10:36:14.245Z,37.83
2023-04-21T10:38:50.388Z,40.71
2023-04-21T10:41:38.361Z,36.59
2023-04-21T10:44:19.897Z,40.75
2023-04-21T10:47:01.510Z,36.97
2023-04-21T10:49:42.427Z,37.70
2023-04-21T10:52:25.201Z,39.34
2023-04-21T10:55:13.493Z,37.31
2023-04-21T10:57:53.271Z,41.30
2023-04-21T11:00:34.427Z,39.62
2023-04-21T11:03:04.855Z,39.85
2023-04-21T11:05:40.719Z,39.48
2023-04-21T11:08:23.748Z,42.01
2023-04-21T11:11:07.916Z,38.95
2023-04-21T11:13:43.905Z,39.91
2023-04-21T11:16:22.806Z,38.44
2023-04-21T11:18:58.973Z,38.96
2023-04-21T11:21:33.252Z,40.83
2023-04-21T11:24:14.985Z,38.02
2023-04-21T11:26:51.216Z,39.83
2023-04-21T11:29:29.722Z,39.88
2023-04-21T11:32:06.549Z,38.49
2023-04-21T11:34:46.612Z,37.97
2023-04-21T11:37:38.424Z,41.38
2023-04-21T11:40:13.986Z,39.68
2023-04-21T11:42:49.646Z,39.33
2023-04-21T11:45:27.876Z,38.31
2023-04-21T11:48:23.734Z,39.29
2023-04-21T11:50:58.990Z,40.14
2023-04-21T11:53:36.986Z,38.54
2023-04-21T11:56:18.126Z,40.36
2023-04-21T11:59:00.362Z,43.01
2023-04-21T12:01:30.734Z,41.72
2023-04-21T12:04:09.032Z,44.12
2023-04-21T12:06:56.479Z,41.88
2023-04-21T12:09:30.917Z,39.70
2023-04-21T12:12:06.355Z,40.85
2023-04-21T12:14:43.578Z,41.68
2023-04-21T12:17:22.012Z,41.12
2023-04-21T12:20:06.788Z,42.30
2023-04-21T12:22:44.987Z,43.68
2023-04-21T12:25:18.996Z,41.32
2023-04-21T12:28:01.975Z,39.31
2023-04-21T12:30:41.738Z,38.75
2023-04-21T12:33:23.101Z,41.51
2023-04-21T12:36:11.742Z,44.47
2023-04-21T12:38:56.756Z,46.17
2023-04-21T12:41:31.640Z,41.93
2023-04-21T12:44:09.473Z,40.01
2023-04-21T12:46:51.351Z,38.26
2023-04-21T12:49:24.209Z,39.99
2023-04-21T12:52:05.533Z,38.36
2023-04-21T12:54:44.802Z,38.14
2023-04-21T12:57:15.751Z,38.71
2023-04-21T12:59:51.520Z,40.16
2023-04-21T13:02:27.257Z,40.24
2023-04-21T13:05:06.273Z,37.68
2023-04-21T13:07:54.099Z,40.46
2023-04-21T13:10:25.506Z,38.97
2023-04-21T13:13:02.366Z,42.43
2023-04-21T13:15:38.216Z,39.59
2023-04-21T13:18:10.799Z,40.50
2023-04-21T13:20:45.256Z,39.96
2023-04-21T13:23:19.723Z,43.02
2023-04-21T13:25:57.453Z,40.15
2023-04-21T13:28:41.497Z,41.77
2023-04-21T13:31:21.835Z,38.76
2023-04-21T13:33:56.597Z,40.47
2023-04-21T13:36:34.745Z,37.78
2023-04-21T13:39:16.853Z,39.85
2023-04-21T13:41:52.229Z,39.59
2023-04-21T13:44:26.607Z,39.23
2023-04-21T13:47:08.939Z,37.16
2023-04-21T13:49:52.158Z,37.34
2023-04-21T13:52:24.375Z,36.44
2023-04-21T13:54:57.514Z,33.86
2023-04-21T13:57:48.607Z,35.47
2023-04-21T14:00:24.499Z,37.91
2023-04-21T14:03:04.916Z,37.79
2023-04-21T14:05:45.509Z,35.92
2023-04-21T14:08:29.964Z,37.49
2023-04-21T14:10:59.582Z,33.79
2023-04-21T14:13:47.787Z,31.65
2023-04-21T14:16:29.409Z,34.32
2023-04-21T14:19:05.361Z,30.51
2023-04-21T14:21:41.536Z,33.26
2023-04-21T14:24:16.831Z,32.90
2023-04-21T14:26:58.859Z,30.17
2023-04-21T14:29:40.497Z,34.54
2023-04-21T14:32:23.612Z,31.89
2023-04-21T14:35:00.196Z,32.67
2023-04-21T14:37:33.322Z,31.89
2023-04-21T14:40:14.643Z,33.94
2023-04-21T14:42:49.534Z,30.50
2023-04-21T14:45:29.514Z,30.00
2023-04-21T14:48:14.228Z,32.37
2023-04-21T14:50:49.447Z,34.37
2023-04-21T14:53:30.376Z,33.94
2023-04-21T14:56:17.158Z,34.40
2023-04-21T14:58:51.705Z,34.65
2023-04-21T15:01:26.727Z,36.25
2023-04-21T15:04:05.158Z,48.57
2023-04-21T15:06:34.958Z,41.02
2023-04-21T15:09:16.009Z,43.14
2023-04-21T15:11:50.791Z,37.14
2023-04-21T15:14:34.793Z,39.97
2023-04-21T15:17:10.120Z,45.12
2023-04-21T15:19:52.396Z,39.64
2023-04-21T15:22:34.410Z,40.47
2023-04-21T15:25:07.885Z,41.31
2023-04-21T15:27:43.075Z,40.97
2023-04-21T15:30:18.445Z,43.20
2023-04-21T15:32:53.935Z,41.12
2023-04-21T15:35:30.552Z,43.37
2023-04-21T15:38:06.621Z,44.67
2023-04-21T15:40:59.668Z,41.03
2023-04-21T15:43:38.788Z,38.98
2023-04-21T15:46:13.488Z,37.04
2023-04-21T15:48:46.648Z,37.64
2023-04-21T15:51:28.250Z,42.38
2023-04-21T15:54:04.614Z,35.25
2023-04-21T15:56:46.250Z,32.12
2023-04-21T15:59:19.499Z,31.98
2023-04-21T16:01:57.869Z,31.86
2023-04-21T16:04:36.035Z,33.18
2023-04-21T16:07:14.057Z,33.49
2023-04-21T16:09:48.647Z,34.84
2023-04-21T16:12:26.435Z,33.03
2023-04-21T16:15:20.258Z,30.97
2023-04-21T16:18:00.699Z,30.26
2023-04-21T16:20:39.724Z,27.34
2023-04-21T16:23:24.765Z,27.04
2023-04-21T16:26:02.069Z,26.53
2023-04-21T16:28:37.510Z,29.09
2023-04-21T16:31:25.577Z,30.82
2023-04-21T16:34:00.538Z,31.16
2023-04-21T16:36:33.381Z,28.87
2023-04-21T16:39:11.646Z,27.14
2023-04-21T16:41:41.604Z,27.60
2023-04-21T16:44:14.550Z,27.93
2023-04-21T16:46:54.733Z,28.40
2023-04-21T16:49:30.235Z,29.07
2023-04-21T16:52:11.429Z,29.02
2023-04-21T16:54:52.704Z,31.65
2023-04-21T16:57:30.475Z,32.05
2023-04-21T17:00:07.227Z,33.25
2023-04-21T17:02:48.746Z,34.17
2023-04-21T17:05:26.348Z,36.21
2023-04-21T17:08:04.544Z,36.40
2023-04-21T17:10:38.495Z,35.91
2023-04-21T17:13:16.189Z,36.89
2023-04-21T17:15:55.091Z,38.13
2023-04-21T17:18:32.380Z,37.60
2023-04-21T17:21:15.501Z,38.37
2023-04-21T17:23:54.511Z,39.03
2023-04-21T17:26:32.203Z,41.90
2023-04-21T17:29:11.187Z,41.74
2023-04-21T17:31:52.563Z,41.56
2023-04-21T17:34:38.537Z,41.98
2023-04-21T17:37:26.173Z,43.54
2023-04-21T17:40:12.951Z,43.91
2023-04-21T17:42:46.807Z,43.62
2023-04-21T17:45:25.461Z,43.37
2023-04-21T17:48:03.213Z,43.63
2023-04-21T17:50:36.066Z,44.16
2023-04-21T17:53:19.908Z,44.10
2023-04-21T17:56:00.677Z,45.36
2023-04-21T17:58:41.070Z,46.31
2023-04-21T18:01:25.772Z,45.83
2023-04-21T18:04:05.625Z,48.32
2023-04-21T18:06:41.332Z,47.52
2023-04-21T18:09:16.652Z,47.84
2023-04-21T18:11:52.461Z,47.52
2023-04-21T18:14:33.389Z,48.28
2023-04-21T18:17:11.542Z,49.58
2023-04-21T18:19:55.402Z,50.42
2023-04-21T18:22:30.818Z,52.03
2023-04-21T18:25:08.484Z,54.02
2023-04-21T18:27:44.922Z,54.01
2023-04-21T18:30:18.045Z,55.30
2023-04-21T18:33:03.702Z,57.53
2023-04-21T18:35:41.799Z,60.10
2023-04-21T18:38:16.655Z,63.19
2023-04-21T18:40:55.429Z,63.70
2023-04-21T18:43:34.768Z,63.48
2023-04-21T18:46:04.800Z,63.96
2023-04-21T18:48:44.974Z,64.71
2023-04-21T18:51:32.965Z,65.79
2023-04-21T18:54:12.343Z,65.22
2023-04-21T18:56:53.360Z,67.54
2023-04-21T18:59:31.464Z,67.29
2023-04-21T19:02:09.279Z,67.42
2023-04-21T19:04:50.695Z,72.14
2023-04-21T19:07:27.120Z,74.46
2023-04-21T19:10:00.777Z,75.00
2023-04-21T19:12:44.644Z,74.04
2023-04-21T19:15:18.496Z,73.36
2023-04-21T19:18:00.142Z,73.84
2023-04-21T19:20:39.538Z,74.75
2023-04-21T19:23:14.399Z,74.20
2023-04-21T19:25:57.507Z,75.63
2023-04-21T19:28:32.037Z,76.81
2023-04-21T19:31:08.753Z,77.91
2023-04-21T19:33:48.196Z,80.05
2023-04-21T19:36:29.401Z,80.76
2023-04-21T19:39:10.342Z,81.30
2023-04-21T19:41:43.837Z,81.68
2023-04-21T19:44:23.376Z,82.89
2023-04-21T19:46:59.517Z,83.35
2023-04-21T19:49:43.172Z,83.94
2023-04-21T19:52:32.392Z,85.71
2023-04-21T19:55:05.471Z,86.50
2023-04-21T19:57:48.857Z,87.62
2023-04-21T20:00:34.465Z,87.69
2023-04-21T20:03:12.300Z,88.15
2023-04-21T20:05:49.750Z,88.10
2023-04-21T20:08:23.142Z,88.71
2023-04-21T20:11:08.914Z,89.48
2023-04-21T20:13:53.477Z,89.43
2023-04-21T20:16:28.536Z,89.18
2023-04-21T20:19:05.481Z,89.92
2023-04-21T20:21:44.153Z,90.48
2023-04-21T20:24:24.904Z,91.10
2023-04-21T20:27:02.401Z,91.23
2023-04-21T20:29:43.682Z,91.45
2023-04-21T20:32:22.550Z,91.60
2023-04-21T20:35:03.121Z,91.80
2023-04-21T20:37:38.381Z,92.21
2023-04-21T20:40:15.969Z,92.49
2023-04-21T20:43:06.489Z,93.34
2023-04-21T20:45:49.654Z,93.96
2023-04-21T20:48:28.879Z,93.66
2023-04-21T20:51:05.531Z,93.45
2023-04-21T20:53:43.395Z,94.07
2023-04-21T20:56:25.144Z,94.24
2023-04-21T20:58:55.125Z,95.22
2023-04-21T21:01:38.904Z,95.16
2023-04-21T21:04:16.609Z,96.49
2023-04-21T21:06:58.453Z,97.62
2023-04-21T21:09:41.648Z,96.99
2023-04-21T21:12:17.496Z,97.44
2023-04-21T21:14:52.987Z,97.81
2023-04-21T21:17:25.889Z,98.27
2023-04-21T21:19:58.886Z,99.59
2023-04-21T21:22:34.607Z,99.78
2023-04-21T21:25:15.061Z,98.61
2023-04-21T21:27:53.110Z,97.56
2023-04-21T21:30:28.464Z,97.14
2023-04-21T21:33:10.922Z,96.54
2023-04-21T21:35:43.073Z,97.16
2023-04-21T21:38:17.596Z,97.59
2023-04-21T21:40:55.359Z,98.18
2023-04-21T21:43:33.949Z,99.26
2023-04-21T21:46:07.593Z,99.63
2023-04-21T21:48:43.501Z,99.83
2023-04-21T21:51:21.144Z,100.00
2023-04-21T21:54:01.880Z,100.00
2023-04-21T21:56:40.113Z,100.00
2023-04-21T21:59:24.535Z,100.00
2023-04-21T22:02:02.316Z,100.00
2023-04-21T22:04:38.463Z,100.00
2023-04-21T22:07:16.492Z,100.00
2023-04-21T22:09:55.481Z,100.00
2023-04-21T22:12:33.581Z,100.00
2023-04-21T22:15:08.662Z,100.00
2023-04-21T22:17:49.427Z,100.00
2023-04-21T22:20:31.024Z,100.00
2023-04-21T22:23:07.828Z,100.00
2023-04-21T22:25:52.126Z,100.00
2023-04-21T22:28:30.375Z,100.00
2023-04-21T22:31:11.116Z,100.00
2023-04-21T22:33:52.436Z,100.00
2023-04-21T22:36:39.424Z,100.00
2023-04-21T22:39:12.709Z,100.00
2023-04-21T22:41:53.282Z,100.00
2023-04-21T22:44:31.432Z,100.00
2023-04-21T22:47:09.672Z,100.00
2023-04-21T22:49:48.085Z,100.00
2023-04-21T22:52:21.496Z,100.00
2023-04-21T22:54:59.249Z,100.00
2023-04-21T22:57:36.515Z,100.00
2023-04-21T23:00:17.042Z,100.00
2023-04-21T23:02:58.467Z,100.00
2023-04-21T23:05:38.667Z,100.00
2023-04-21T23:08:19.948Z,100.00
2023-04-21T23:11:06.529Z,100.00
2023-04-21T23:13:38.403Z,100.00
2023-04-21T23:16:11.575Z,100.00
2023-04-21T23:18:47.080Z,100.00
2023-04-21T23:21:20.776Z,100.00
2023-04-21T23:23:56.175Z,100.00
2023-04-21T23:26:28.630Z,100.00
2023-04-21T23:29:06.808Z,100.00
2023-04-21T23:31:44.727Z,100.00
2023-04-21T23:34:17.061Z,100.00
2023-04-21T23:36:56.547Z,100.00
2023-04-21T23:39:50.530Z,100.00
2023-04-21T23:42:28.245Z,100.00
2023-04-21T23:45:05.142Z,100.00
2023-04-21T23:47:49.199Z,100.00
2023-04-21T23:50:24.698Z,100.00
2023-04-21T23:53:08.523Z,100.00
2023-04-21T23:55:46.275Z,100.00
2023-04-21T23:58:21.646Z,100.00
